Time;durP1;ratioP1;P1;durP2;ratioP2;P2;SDS_P1;SDS_P2;PMS_P1;PMS_P2;Temp;Humidity;BMP_temperature;BMP_pressure;BME280_temperature;BME280_humidity;BME280_pressure;Samples;Min_cycle;Max_cycle;Signal;HPM_P1;HPM_P2
2024/04/24 00:02:09;;;;;;;19.70;12.05;;;;;;;11.36;100.00;91926.28;6319358;22;20007;-73
2024/04/24 00:04:34;;;;;;;17.77;10.65;;;;;;;11.37;100.00;91921.91;6319337;22;20413;-73
2024/04/24 00:07:00;;;;;;;17.60;9.98;;;;;;;11.43;100.00;91928.63;6319259;22;20517;-73
2024/04/24 00:09:25;;;;;;;16.35;10.00;;;;;;;11.34;100.00;91917.28;6319115;22;20074;-73
2024/04/24 00:11:51;;;;;;;21.73;9.95;;;;;;;11.19;100.00;91894.78;6319553;22;19995;-73
2024/04/24 00:14:17;;;;;;;21.15;10.00;;;;;;;11.12;100.00;91879.59;6318895;22;20361;-73
2024/04/24 00:16:42;;;;;;;15.73;8.82;;;;;;;11.19;100.00;91893.00;6318396;22;19996;-73
2024/04/24 00:19:08;;;;;;;14.65;9.75;;;;;;;11.35;100.00;91918.81;6319666;22;20081;-73
2024/04/24 00:21:33;;;;;;;17.00;7.85;;;;;;;10.90;100.00;91851.41;6318845;22;20041;-73
2024/04/24 00:23:59;;;;;;;14.20;8.35;;;;;;;11.37;100.00;91919.34;6318647;22;20641;-73
2024/04/24 00:26:24;;;;;;;13.38;7.00;;;;;;;11.32;100.00;91917.53;6319738;22;20068;-73
2024/04/24 00:28:50;;;;;;;14.70;7.85;;;;;;;11.39;100.00;91916.53;6319370;22;20000;-73
2024/04/24 00:31:15;;;;;;;15.65;7.53;;;;;;;11.29;100.00;91906.97;6319016;22;19992;-73
2024/04/24 00:33:41;;;;;;;11.57;7.63;;;;;;;10.65;100.00;91811.66;6319470;22;20003;-73
2024/04/24 00:36:06;;;;;;;13.70;7.55;;;;;;;11.19;100.00;91882.72;6318551;22;19996;-73
2024/04/24 00:38:32;;;;;;;13.65;7.28;;;;;;;11.35;100.00;91905.97;6319483;22;20995;-73
2024/04/24 00:40:57;;;;;;;13.57;6.38;;;;;;;11.06;100.00;91865.91;6319156;22;20310;-73
2024/04/24 00:43:23;;;;;;;15.27;6.85;;;;;;;11.00;100.00;91866.09;6319346;22;20007;-73
2024/04/24 00:45:48;;;;;;;12.02;6.70;;;;;;;10.78;100.00;91834.34;6318980;22;20301;-73
2024/04/24 00:48:14;;;;;;;13.25;7.30;;;;;;;11.02;100.00;91874.38;6319449;22;20004;-73
2024/04/24 00:50:41;;;;;;;15.23;7.15;;;;;;;11.14;100.00;91898.09;6318505;22;20007;-73
2024/04/24 00:53:06;;;;;;;;;;;;;;;11.20;100.00;91909.97;6318922;22;20007;-73
2024/04/24 00:55:32;;;;;;;11.00;5.95;;;;;;;10.96;100.00;91896.66;6319157;22;19968;-74
2024/04/24 00:57:58;;;;;;;12.38;6.22;;;;;;;11.06;100.00;91919.13;6319199;22;20075;-73
2024/04/24 01:00:25;;;;;;;13.93;5.82;;;;;;;10.81;100.00;91887.03;6319219;22;20429;-73
2024/04/24 01:02:51;;;;;;;11.27;5.70;;;;;;;10.89;100.00;91894.31;6318732;22;20000;-73
2024/04/24 01:05:16;;;;;;;14.30;6.70;;;;;;;10.95;100.00;91913.88;6318677;22;20085;-73
2024/04/24 01:07:42;;;;;;;13.75;5.28;;;;;;;10.71;100.00;91874.09;6320716;22;20007;-73
2024/04/24 01:10:15;;;;;;;15.60;6.07;;;;;;;11.06;100.00;91932.72;6320553;22;20751;-72
2024/04/24 01:12:40;;;;;;;18.92;6.28;;;;;;;10.79;100.00;91894.22;6319596;22;20045;-72
2024/04/24 01:15:06;;;;;;;15.00;5.60;;;;;;;10.81;100.00;91892.97;6320010;22;20092;-72
2024/04/24 01:17:33;;;;;;;18.45;5.15;;;;;;;10.85;100.00;91895.03;6277453;22;20443;-73
2024/04/24 01:20:00;;;;;;;15.05;5.22;;;;;;;10.67;100.00;91863.53;6320760;22;20011;-73
2024/04/24 01:22:34;;;;;;;13.75;5.28;;;;;;;11.22;100.00;91938.75;6320762;22;20004;-73
2024/04/24 01:25:11;;;;;;;18.02;5.07;;;;;;;11.21;100.00;91929.50;6320173;22;20479;-72
2024/04/24 01:27:37;;;;;;;16.85;5.60;;;;;;;10.87;100.00;91886.06;6320785;22;20525;-73
2024/04/24 01:30:03;;;;;;;12.65;5.30;;;;;;;11.21;100.00;91937.22;6320069;22;20035;-72
2024/04/24 01:32:28;;;;;;;15.57;5.18;;;;;;;11.16;100.00;91915.84;6320402;22;20007;-73
2024/04/24 01:34:54;;;;;;;16.13;5.28;;;;;;;11.17;100.00;91923.31;6320973;22;19999;-73
2024/04/24 01:37:19;;;;;;;16.88;4.95;;;;;;;10.97;100.00;91898.19;6320906;22;20002;-72
2024/04/24 01:39:45;;;;;;;16.70;5.45;;;;;;;11.33;100.00;91941.41;6320712;22;21294;-73
2024/04/24 01:42:10;;;;;;;13.77;5.65;;;;;;;11.25;100.00;91929.78;6320613;22;19995;-73
2024/04/24 01:44:36;;;;;;;14.40;6.18;;;;;;;11.36;100.00;91936.56;6320396;22;20000;-73
2024/04/24 01:47:01;;;;;;;21.00;5.80;;;;;;;10.63;100.00;91834.22;6319871;22;20007;-73
2024/04/24 01:49:27;;;;;;;12.27;5.22;;;;;;;11.33;100.00;91928.56;6320322;22;19996;-73
2024/04/24 01:51:52;;;;;;;13.75;6.28;;;;;;;11.36;100.00;91922.94;6320329;22;20004;-73
2024/04/24 01:54:18;;;;;;;19.55;5.70;;;;;;;11.37;100.00;91927.06;6320231;22;20010;-73
2024/04/24 01:56:43;;;;;;;16.13;5.38;;;;;;;11.14;100.00;91899.88;6319791;22;20585;-73
2024/04/24 01:59:08;;;;;;;19.35;5.22;;;;;;;11.23;100.00;91916.41;6320541;22;20008;-72
2024/04/24 02:01:34;;;;;;;19.83;6.25;;;;;;;11.23;100.00;91911.28;6320398;22;20007;-73
2024/04/24 02:03:59;;;;;;;14.73;5.03;;;;;;;11.23;100.00;91914.63;6320450;22;20049;-72
2024/04/24 02:06:25;;;;;;;13.77;5.13;;;;;;;11.38;100.00;91940.69;6320006;22;20000;-72
2024/04/24 02:08:50;;;;;;;12.48;5.50;;;;;;;11.42;100.00;91944.31;6319967;22;20011;-72
2024/04/24 02:11:19;;;;;;;27.92;9.73;;;;;;;11.12;100.00;91943.84;6320543;22;19996;-73
2024/04/24 02:13:45;;;;;;;17.70;9.50;;;;;;;10.73;100.00;91910.59;6319733;22;20421;-73
2024/04/24 02:16:11;;;;;;;29.13;11.07;;;;;;;10.62;100.00;91941.31;6319227;22;20003;-73
2024/04/24 02:18:36;;;;;;;23.30;10.52;;;;;;;10.54;100.00;91965.63;6320151;22;20049;-73
2024/04/24 02:21:08;;;;;;;33.40;11.95;;;;;;;10.30;100.00;91926.56;6319318;22;20011;-73
2024/04/24 02:23:34;;;;;;;32.78;12.88;;;;;;;10.25;100.00;91942.69;6319705;22;20036;-73
2024/04/24 02:26:06;;;;;;;;;;;;;;;10.61;100.00;91972.34;6321317;22;19992;-73
2024/04/24 02:28:32;;;;;;;26.55;12.82;;;;;;;10.33;100.00;91940.69;6317078;22;19931;-73
2024/04/24 02:30:58;;;;;;;26.92;12.43;;;;;;;10.40;100.00;91947.22;6320019;22;20004;-73
2024/04/24 02:33:23;;;;;;;22.75;13.25;;;;;;;10.39;100.00;91937.16;6319751;22;20015;-73
2024/04/24 02:35:49;;;;;;;23.60;10.93;;;;;;;10.76;100.00;91976.88;6320028;22;20015;-73
2024/04/24 02:38:14;;;;;;;24.30;11.02;;;;;;;10.55;100.00;91943.28;6319256;22;20088;-73
2024/04/24 02:40:40;;;;;;;26.50;11.35;;;;;;;10.82;100.00;91965.63;6319389;22;20008;-74
2024/04/24 02:43:05;;;;;;;20.92;10.88;;;;;;;10.81;100.00;91966.66;6319737;22;20019;-73
2024/04/24 02:45:31;;;;;;;26.63;13.00;;;;;;;10.84;100.00;91971.31;6319428;22;20007;-73
2024/04/24 02:47:56;;;;;;;18.48;11.40;;;;;;;10.84;100.00;91968.75;6319989;22;20300;-73
2024/04/24 02:50:22;;;;;;;20.13;11.35;;;;;;;10.22;100.00;91876.41;6320344;22;20105;-73
2024/04/24 02:52:48;;;;;;;19.20;11.10;;;;;;;10.72;100.00;91944.97;6319812;22;20464;-73
2024/04/24 02:55:14;;;;;;;20.80;11.88;;;;;;;10.90;100.00;91979.84;6319422;22;20003;-73
2024/04/24 02:57:39;;;;;;;19.92;10.57;;;;;;;10.86;100.00;91977.00;6319784;22;20008;-73
2024/04/24 03:00:07;;;;;;;22.70;10.77;;;;;;;10.64;100.00;91964.94;6318665;22;20304;-73
2024/04/24 03:02:35;;;;;;;22.85;11.27;;;;;;;10.71;100.00;91966.56;6319622;22;20004;-73
2024/04/24 03:05:00;;;;;;;21.85;12.15;;;;;;;10.86;100.00;91976.19;6319462;22;20105;-73
2024/04/24 03:07:28;;;;;;;20.30;11.48;;;;;;;10.96;100.00;91968.59;6319726;22;20011;-73
2024/04/24 03:09:54;;;;;;;21.75;11.48;;;;;;;10.82;100.00;91938.16;6319044;22;20417;-73
2024/04/24 03:12:20;;;;;;;17.92;10.20;;;;;;;11.05;100.00;91976.66;6319115;22;20323;-73
2024/04/24 03:14:45;;;;;;;16.23;10.75;;;;;;;11.00;100.00;91972.25;6319896;22;20015;-73
2024/04/24 03:17:11;;;;;;;28.50;11.77;;;;;;;10.91;100.00;91948.78;6319835;22;20004;-73
2024/04/24 03:19:37;;;;;;;19.10;10.45;;;;;;;11.05;100.00;91964.59;6319237;22;20099;-73
2024/04/24 03:22:03;;;;;;;18.02;10.35;;;;;;;11.26;100.00;91999.97;6319558;22;20000;-73
2024/04/24 03:24:28;;;;;;;22.60;12.13;;;;;;;11.07;100.00;91964.34;6319721;22;20310;-73
2024/04/24 03:26:54;;;;;;;20.45;12.10;;;;;;;10.96;100.00;91940.34;6319540;22;20019;-73
2024/04/24 03:29:19;;;;;;;21.95;11.57;;;;;;;11.09;100.00;91957.94;6319020;22;20052;-73
2024/04/24 03:31:45;;;;;;;20.63;10.60;;;;;;;10.95;100.00;91959.34;6319471;22;20006;-74
2024/04/24 03:34:10;;;;;;;18.40;12.40;;;;;;;11.14;100.00;91977.78;6319745;22;19996;-74
2024/04/24 03:36:36;;;;;;;22.77;11.88;;;;;;;11.03;100.00;91964.06;6319482;22;20705;-73
2024/04/24 03:39:01;;;;;;;22.48;13.80;;;;;;;11.25;100.00;91999.19;6319478;22;20040;-73
2024/04/24 03:41:27;;;;;;;19.13;13.52;;;;;;;11.06;100.00;91976.41;6319260;22;20402;-73
2024/04/24 03:43:52;;;;;;;23.33;13.98;;;;;;;11.11;100.00;91965.38;6318537;22;20000;-73
2024/04/24 03:46:18;;;;;;;21.48;13.38;;;;;;;11.02;100.00;91970.19;6319339;22;20012;-73
2024/04/24 03:48:43;;;;;;;21.92;12.45;;;;;;;11.03;100.00;91963.28;6318805;22;20014;-73
2024/04/24 03:51:09;;;;;;;20.67;12.50;;;;;;;11.04;100.00;91969.97;6319764;22;20010;-73
2024/04/24 03:53:34;;;;;;;21.13;12.10;;;;;;;10.94;100.00;91962.94;6319899;22;20026;-73
2024/04/24 03:56:00;;;;;;;22.42;15.07;;;;;;;10.89;100.00;92007.34;6318500;22;20000;-73
2024/04/24 03:58:25;;;;;;;22.10;15.85;;;;;;;10.60;100.00;91989.53;6318653;22;20022;-73
2024/04/24 04:00:51;;;;;;;23.47;14.93;;;;;;;10.63;100.00;92007.06;6318922;22;20436;-73
2024/04/24 04:03:16;;;;;;;23.88;15.32;;;;;;;10.67;100.00;92017.63;6318686;22;20280;-72
2024/04/24 04:05:42;;;;;;;27.15;16.15;;;;;;;10.32;100.00;91990.47;6319535;22;20000;-73
2024/04/24 04:08:07;;;;;;;31.45;17.83;;;;;;;10.44;100.00;92027.09;6319486;22;20421;-72
2024/04/24 04:10:33;;;;;;;36.97;19.00;;;;;;;10.22;100.00;92001.38;6318788;22;20612;-72
2024/04/24 04:12:58;;;;;;;33.60;19.63;;;;;;;10.15;100.00;91992.06;6319219;22;20232;-73
2024/04/24 04:15:24;;;;;;;33.03;21.17;;;;;;;10.59;100.00;92028.31;6317773;22;20079;-73
2024/04/24 04:17:49;;;;;;;30.40;17.42;;;;;;;10.37;100.00;91993.13;6318962;22;20421;-73
2024/04/24 04:20:15;;;;;;;32.80;18.25;;;;;;;10.45;100.00;91994.53;6318109;22;19996;-72
2024/04/24 04:22:41;;;;;;;32.28;22.35;;;;;;;10.29;100.00;91966.06;6318128;22;20007;-73
2024/04/24 04:25:06;;;;;;;35.65;20.83;;;;;;;10.85;100.00;92029.38;6318131;22;20015;-73
2024/04/24 04:27:32;;;;;;;30.73;20.45;;;;;;;10.67;100.00;91994.50;6275051;22;19996;-73
2024/04/24 04:29:58;;;;;;;30.13;18.63;;;;;;;10.95;100.00;92024.38;6317344;22;20015;-72
2024/04/24 04:32:24;;;;;;;;;;;;;;;11.19;100.00;92047.22;6318905;22;19999;-73
2024/04/24 04:34:49;;;;;;;24.58;17.00;;;;;;;11.17;100.00;92046.69;6317720;22;20000;-73
2024/04/24 04:37:15;;;;;;;35.72;18.77;;;;;;;11.09;100.00;92013.69;6272818;22;19999;-73
2024/04/24 04:39:40;;;;;;;34.72;18.02;;;;;;;11.26;100.00;92031.59;6317030;22;20007;-73
2024/04/24 04:42:06;;;;;;;29.02;16.73;;;;;;;11.16;100.00;92003.22;6320829;22;20010;-73
2024/04/24 04:44:31;;;;;;;32.63;18.83;;;;;;;11.36;100.00;92030.91;6318760;22;20000;-72
2024/04/24 04:46:57;;;;;;;29.20;16.92;;;;;;;11.31;100.00;92012.88;6317408;22;20425;-73
2024/04/24 04:49:22;;;;;;;29.30;17.25;;;;;;;11.62;100.00;92046.59;6276833;22;19992;-73
2024/04/24 04:51:48;;;;;;;27.35;17.10;;;;;;;11.43;100.00;92015.31;6317658;22;20007;-73
2024/04/24 04:54:13;;;;;;;26.98;16.17;;;;;;;11.68;100.00;92040.47;6316349;22;20000;-73
2024/04/24 04:56:38;;;;;;;27.45;16.92;;;;;;;11.78;100.00;92050.03;6317054;22;20316;-73
2024/04/24 04:59:04;;;;;;;28.20;18.70;;;;;;;11.65;100.00;92032.44;6316134;22;20008;-73
2024/04/24 05:01:30;;;;;;;33.22;19.65;;;;;;;11.65;100.00;92022.13;6321235;22;19996;-72
2024/04/24 05:03:57;;;;;;;29.15;17.83;;;;;;;11.59;100.00;92003.34;6320066;22;20315;-73
2024/04/24 05:06:23;;;;;;;27.98;16.83;;;;;;;11.96;100.00;92053.25;6320382;22;20007;-73
2024/04/24 05:08:48;;;;;;;26.23;14.50;;;;;;;11.74;100.00;92015.53;6320928;22;20054;-73
2024/04/24 05:11:14;;;;;;;27.95;15.85;;;;;;;11.64;100.00;91995.66;6278145;22;20011;-73
2024/04/24 05:13:39;;;;;;;26.08;15.10;;;;;;;12.01;100.00;92038.66;6319818;22;19996;-73
2024/04/24 05:16:11;;;;;;;28.10;15.70;;;;;;;12.07;100.00;92025.84;6318693;22;20074;-73
2024/04/24 05:18:36;;;;;;;26.33;15.38;;;;;;;12.02;100.00;92026.53;6320983;22;20294;-73
2024/04/24 05:21:02;;;;;;;22.10;14.85;;;;;;;11.96;100.00;92012.88;6320608;22;20011;-73
2024/04/24 05:23:28;;;;;;;20.52;12.15;;;;;;;12.23;100.00;92047.28;6320831;22;20004;-73
2024/04/24 05:25:55;;;;;;;22.00;13.93;;;;;;;12.32;100.00;92053.53;6319905;22;20003;-73
2024/04/24 05:31:05;;;;;;;22.75;13.18;;;;;;;12.41;100.00;92048.69;6320043;22;20007;-73
2024/04/24 05:33:30;;;;;;;26.52;12.85;;;;;;;12.51;100.00;92051.31;6320904;22;20004;-73
2024/04/24 05:35:56;;;;;;;26.25;12.80;;;;;;;12.43;100.00;92031.19;6320808;22;20040;-73
2024/04/24 05:38:21;;;;;;;18.33;11.38;;;;;;;12.51;100.00;92038.41;6320497;22;20010;-73
2024/04/24 05:40:56;;;;;;;16.95;10.82;;;;;;;12.39;100.00;92012.09;6317052;22;20183;-73
2024/04/24 05:43:22;;;;;;;20.10;12.23;;;;;;;12.40;100.00;92011.06;6315016;22;20000;-73
2024/04/24 05:45:49;;;;;;;19.83;12.60;;;;;;;12.72;100.00;92053.97;6320000;22;19996;-73
2024/04/24 05:48:14;;;;;;;19.45;12.80;;;;;;;12.77;100.00;92048.84;6318803;22;19999;-73
2024/04/24 05:50:40;;;;;;;21.05;14.50;;;;;;;12.88;100.00;92041.16;6317519;22;20390;-73
2024/04/24 05:53:05;;;;;;;19.23;13.07;;;;;;;12.90;100.00;92039.09;6319990;22;20014;-73
2024/04/24 05:55:31;;;;;;;23.90;12.35;;;;;;;12.85;100.00;92021.81;6320488;22;19999;-73
2024/04/24 05:57:56;;;;;;;15.60;10.68;;;;;;;13.14;100.00;92036.84;6319724;22;20004;-73
2024/04/24 06:00:22;;;;;;;17.35;10.00;;;;;;;13.35;100.00;92060.13;6319830;22;20095;-73
2024/04/24 06:02:47;;;;;;;15.98;9.82;;;;;;;13.47;100.00;92062.50;6320651;22;20309;-73
2024/04/24 06:05:12;;;;;;;13.25;9.23;;;;;;;13.49;100.00;92056.06;6320016;22;20075;-73
2024/04/24 06:07:40;;;;;;;14.38;8.07;;;;;;;13.60;100.00;92058.63;6319331;22;20003;-73
2024/04/24 06:10:06;;;;;;;15.27;8.35;;;;;;;13.41;100.00;92017.03;6320515;22;20004;-73
2024/04/24 06:12:32;;;;;;;15.35;8.20;;;;;;;13.76;100.00;92054.28;6321036;22;20123;-73
2024/04/24 06:14:57;;;;;;;17.95;9.15;;;;;;;13.85;100.00;92060.44;6320354;22;20000;-73
2024/04/24 06:17:23;;;;;;;14.55;8.48;;;;;;;13.86;100.00;92043.94;6320434;22;20011;-73
2024/04/24 06:19:48;;;;;;;15.35;8.43;;;;;;;13.90;100.00;92042.38;6319996;22;19996;-73
2024/04/24 06:22:14;;;;;;;13.68;7.20;;;;;;;13.87;100.00;92019.69;6277988;22;20014;-73
2024/04/24 06:24:39;;;;;;;14.82;6.03;;;;;;;13.45;100.00;91948.44;6320498;22;20690;-73
2024/04/24 06:27:04;;;;;;;14.43;7.60;;;;;;;13.96;100.00;92024.31;6319626;22;20007;-73
2024/04/24 06:29:31;;;;;;;15.20;6.57;;;;;;;14.07;100.00;92018.09;6318966;22;20002;-73
2024/04/24 06:31:57;;;;;;;20.35;7.90;;;;;;;14.13;100.00;92034.38;6319142;22;20232;-73
2024/04/24 06:34:22;;;;;;;14.32;7.95;;;;;;;14.20;100.00;92032.28;6319453;22;20028;-73
2024/04/24 06:36:48;;;;;;;15.98;6.32;;;;;;;14.25;100.00;92021.97;6319300;22;20000;-73
2024/04/24 06:39:13;;;;;;;19.30;6.63;;;;;;;14.15;100.00;91993.56;6318627;22;20041;-73
2024/04/24 06:41:39;;;;;;;16.13;5.88;;;;;;;14.48;100.00;92039.75;6316737;22;20000;-73
2024/04/24 06:44:04;;;;;;;16.13;6.03;;;;;;;14.66;100.00;92048.72;6318908;22;19996;-73
2024/04/24 06:46:30;;;;;;;19.65;6.90;;;;;;;14.86;100.00;92058.25;6317420;22;19996;-73
2024/04/24 06:48:55;;;;;;;13.93;7.57;;;;;;;14.07;100.00;91987.13;6317736;22;20021;-73
2024/04/24 06:51:20;;;;;;;15.63;7.78;;;;;;;14.58;100.00;92031.94;6319735;22;20007;-73
2024/04/24 06:53:46;;;;;;;16.42;7.35;;;;;;;14.74;100.00;92021.56;6318927;22;20004;-73
2024/04/24 06:56:11;;;;;;;19.27;9.90;;;;;;;15.05;100.00;92068.78;6319070;22;20489;-73
2024/04/24 06:58:37;;;;;;;16.90;8.90;;;;;;;15.05;100.00;92068.00;6320069;22;20003;-73
2024/04/24 07:01:06;;;;;;;14.38;6.15;;;;;;;14.85;100.00;92043.78;6317930;22;20000;-73
2024/04/24 07:03:32;;;;;;;14.80;8.05;;;;;;;14.98;100.00;92042.44;6317945;22;20007;-73
2024/04/24 07:05:57;;;;;;;16.00;7.63;;;;;;;15.16;100.00;92077.28;6315652;22;20503;-73
2024/04/24 07:08:23;;;;;;;12.63;4.20;;;;;;;14.40;97.96;91999.72;6317241;22;20004;-73
2024/04/24 07:10:50;;;;;;;7.47;2.70;;;;;;;14.90;100.00;92058.50;6317232;22;19995;-72
2024/04/24 07:13:17;;;;;;;8.57;3.17;;;;;;;15.05;95.97;92075.78;6314504;22;20044;-73
2024/04/24 07:15:42;;;;;;;15.93;3.58;;;;;;;14.90;95.88;92045.59;6315598;22;20000;-73
2024/04/24 07:18:08;;;;;;;25.30;7.18;;;;;;;15.32;96.79;92059.84;6316293;22;20394;-73
2024/04/24 07:20:33;;;;;;;15.50;5.07;;;;;;;15.41;96.08;92043.78;6317478;22;20003;-73
2024/04/24 07:22:59;;;;;;;14.73;5.55;;;;;;;15.11;99.20;91997.13;6318782;22;20508;-73
2024/04/24 07:25:24;;;;;;;13.38;4.47;;;;;;;15.40;97.35;92047.38;6318132;22;20007;-73
2024/04/24 07:27:50;;;;;;;14.48;4.53;;;;;;;14.53;93.94;91936.34;6316896;22;20402;-73
2024/04/24 07:30:16;;;;;;;12.43;4.55;;;;;;;14.88;95.40;92061.34;6315542;22;20024;-73
2024/04/24 07:32:41;;;;;;;;;;;;;;;14.83;93.77;92063.97;6316081;22;19996;-73
2024/04/24 07:35:08;;;;;;;13.90;3.33;;;;;;;14.67;91.82;92024.41;6314910;22;20012;-73
2024/04/24 07:37:33;;;;;;;;;;;;;;;15.13;92.74;92067.44;6315957;22;20544;-73
2024/04/24 07:39:59;;;;;;;7.65;3.08;;;;;;;15.16;95.65;92032.53;6314288;22;19932;-73
2024/04/24 07:42:25;;;;;;;;;;;;;;;15.79;98.24;92059.59;6315192;22;20007;-73
2024/04/24 07:44:50;;;;;;;20.23;6.15;;;;;;;15.66;87.94;92031.72;6314831;22;20242;-73
2024/04/24 07:47:15;;;;;;;11.35;3.88;;;;;;;15.76;91.06;92066.06;6313592;22;20317;-73
2024/04/24 07:49:41;;;;;;;10.07;3.65;;;;;;;15.35;87.86;92043.81;6315605;22;20024;-73
2024/04/24 07:52:07;;;;;;;12.38;3.97;;;;;;;15.67;87.60;92090.19;6315016;22;20009;-73
2024/04/24 07:54:32;;;;;;;10.55;4.35;;;;;;;15.73;92.32;92069.19;6318001;22;20000;-73
2024/04/24 07:56:58;;;;;;;10.63;4.57;;;;;;;15.98;94.77;92041.56;6319158;22;20000;-73
2024/04/24 07:59:24;;;;;;;8.27;4.28;;;;;;;16.11;91.87;92026.47;6314696;22;20002;-72
2024/04/24 08:01:49;;;;;;;12.57;3.20;;;;;;;16.50;89.26;92071.44;6315253;22;20071;-73
2024/04/24 08:04:14;;;;;;;9.65;3.78;;;;;;;16.80;91.76;92064.41;6316429;22;19996;-73
2024/04/24 08:06:40;;;;;;;11.38;3.53;;;;;;;16.64;79.72;92056.81;6318621;22;20313;-73
2024/04/24 08:09:06;;;;;;;13.82;4.15;;;;;;;16.53;80.37;92047.59;6315622;22;20304;-73
2024/04/24 08:11:31;;;;;;;17.65;4.47;;;;;;;16.83;86.89;92074.22;6318683;22;19992;-73
2024/04/24 08:13:58;;;;;;;10.48;3.58;;;;;;;16.85;84.55;92009.88;6318222;22;19996;-73
2024/04/24 08:16:24;;;;;;;10.93;2.55;;;;;;;17.12;77.90;92055.25;6319079;22;19992;-73
2024/04/24 08:18:50;;;;;;;10.45;2.78;;;;;;;17.41;77.03;92097.72;6318863;22;20794;-73
2024/04/24 08:21:16;;;;;;;9.02;2.45;;;;;;;17.50;78.52;92101.25;6318188;22;20802;-73
2024/04/24 08:23:43;;;;;;;6.00;2.05;;;;;;;17.31;82.22;92054.50;6318072;22;20045;-73
2024/04/24 08:26:09;;;;;;;7.53;2.13;;;;;;;17.13;78.82;92058.63;6319717;22;20395;-73
2024/04/24 08:28:35;;;;;;;6.25;1.80;;;;;;;17.49;79.86;92053.72;6318411;22;20402;-73
2024/04/24 08:31:04;;;;;;;6.15;1.65;;;;;;;17.27;78.51;92085.41;6277290;22;20398;-73
2024/04/24 08:33:30;;;;;;;9.13;2.28;;;;;;;17.05;75.51;92078.16;6321316;22;20406;-73
2024/04/24 08:36:06;;;;;;;6.20;2.25;;;;;;;17.30;79.20;92074.50;6320874;22;20000;-74
2024/04/24 08:38:32;;;;;;;5.32;1.80;;;;;;;17.30;75.88;92052.94;6320954;22;20014;-73
2024/04/24 08:41:09;;;;;;;6.10;1.70;;;;;;;17.17;77.40;92068.16;6321237;22;20011;-73
2024/04/24 08:43:42;;;;;;;9.25;2.13;;;;;;;16.76;75.78;92068.59;6320928;22;20014;-73
2024/04/24 08:46:10;;;;;;;7.45;2.47;;;;;;;16.89;74.22;92070.53;6319832;22;19999;-73
2024/04/24 08:48:42;;;;;;;6.38;2.47;;;;;;;17.03;76.34;92043.97;6319156;22;20007;-73
2024/04/24 08:51:09;;;;;;;7.85;2.83;;;;;;;17.30;76.25;92043.34;6320951;22;20421;-73
2024/04/24 08:53:36;;;;;;;13.93;4.15;;;;;;;17.28;79.65;92062.84;6320827;22;20008;-73
2024/04/24 08:56:07;;;;;;;10.05;3.33;;;;;;;17.14;76.35;92018.66;6319628;22;20000;-74
2024/04/24 08:58:36;;;;;;;8.95;2.85;;;;;;;17.83;73.27;92096.09;6318967;22;20019;-73
2024/04/24 09:01:12;;;;;;;6.53;2.50;;;;;;;18.05;77.66;92086.94;6317021;22;20011;-74
2024/04/24 09:03:41;;;;;;;10.23;2.72;;;;;;;17.74;74.92;92056.25;6318027;22;20012;-73
2024/04/24 09:06:11;;;;;;;6.03;2.03;;;;;;;17.85;76.72;91999.72;6316967;22;20469;-73
2024/04/24 09:08:38;;;;;;;8.82;2.40;;;;;;;18.58;75.29;92063.50;6318653;22;20287;-73
2024/04/24 09:11:04;;;;;;;7.53;3.40;;;;;;;18.79;79.46;92017.88;6318427;22;20000;-74
2024/04/24 09:13:30;;;;;;;12.68;3.20;;;;;;;18.88;74.06;91991.19;6320287;22;20010;-73
2024/04/24 09:15:59;;;;;;;6.20;2.00;;;;;;;19.40;64.51;92079.44;6277282;22;20065;-73
2024/04/24 09:18:25;;;;;;;9.57;2.70;;;;;;;19.17;66.30;92078.59;6317326;22;20433;-73
2024/04/24 09:20:52;;;;;;;6.82;2.15;;;;;;;19.34;69.98;92070.94;6318972;22;19996;-73
2024/04/24 09:23:24;;;;;;;9.45;2.45;;;;;;;19.04;65.54;92035.91;6319086;22;19999;-73
2024/04/24 09:25:50;;;;;;;8.48;2.33;;;;;;;19.33;66.47;92032.19;6319902;22;19996;-73
2024/04/24 09:28:19;;;;;;;;;;;;;;;19.53;62.30;92075.25;6319852;22;20007;-73
2024/04/24 09:30:44;;;;;;;6.15;1.95;;;;;;;19.72;69.84;92058.72;6276532;22;19924;-73
2024/04/24 09:33:11;;;;;;;7.03;2.15;;;;;;;19.42;64.49;92027.81;6320041;22;20004;-73
2024/04/24 09:35:37;;;;;;;6.55;1.95;;;;;;;19.86;63.40;92061.25;6318500;22;19996;-74
2024/04/24 09:38:05;;;;;;;7.07;2.30;;;;;;;19.56;63.43;92021.78;6317359;22;20002;-74
2024/04/24 09:40:32;;;;;;;8.70;2.70;;;;;;;19.84;69.89;92034.72;6319480;22;19996;-74
2024/04/24 09:42:58;;;;;;;5.32;2.03;;;;;;;20.14;67.52;92029.88;6319342;22;20000;-73
2024/04/24 09:45:26;;;;;;;6.93;2.10;;;;;;;20.34;70.61;92001.75;6319711;22;19996;-74
2024/04/24 09:47:52;;;;;;;7.43;1.92;;;;;;;20.17;69.18;91935.44;6320021;22;20028;-73
2024/04/24 09:50:24;;;;;;;8.90;1.80;;;;;;;20.38;60.86;91959.16;6318276;22;20275;-73
2024/04/24 09:52:49;;;;;;;9.50;2.38;;;;;;;21.23;65.88;92042.75;6278306;22;20000;-74
2024/04/24 09:55:15;;;;;;;7.30;2.03;;;;;;;21.45;64.52;92041.88;6320367;22;20424;-73
2024/04/24 09:57:43;;;;;;;;;;;;;;;21.64;62.23;92056.47;6319906;22;19995;-73
2024/04/24 10:00:12;;;;;;;8.65;2.17;;;;;;;21.12;64.29;91953.50;6317781;22;19924;-73
2024/04/24 10:02:40;;;;;;;6.28;2.20;;;;;;;21.65;61.20;92055.38;6318070;22;19996;-73
2024/04/24 10:05:09;;;;;;;4.72;2.10;;;;;;;21.78;61.64;92051.13;6319084;22;19996;-73
2024/04/24 10:07:40;;;;;;;13.80;2.13;;;;;;;21.56;60.91;92010.97;6319024;22;19996;-73
2024/04/24 10:10:09;;;;;;;6.32;2.17;;;;;;;21.66;57.65;92046.47;6318567;22;19996;-72
2024/04/24 10:12:42;;;;;;;4.82;1.90;;;;;;;21.43;58.50;92010.03;6315572;22;20468;-73
2024/04/24 10:15:10;;;;;;;6.32;1.45;;;;;;;21.61;57.73;92055.22;6313198;22;20011;-73
2024/04/24 10:17:39;;;;;;;4.82;1.90;;;;;;;21.50;59.69;92017.41;6317797;22;20075;-73
2024/04/24 10:20:06;;;;;;;4.95;1.70;;;;;;;21.17;57.33;91942.91;6316015;22;20107;-73
2024/04/24 10:22:33;;;;;;;6.32;2.20;;;;;;;21.79;56.60;92012.69;6315116;22;20494;-73
2024/04/24 10:25:01;;;;;;;7.82;3.30;;;;;;;21.93;58.19;92015.88;6315922;22;20028;-73
2024/04/24 10:27:29;;;;;;;4.88;2.28;;;;;;;21.97;57.21;92029.88;6313809;22;20405;-73
2024/04/24 10:29:56;;;;;;;7.82;1.70;;;;;;;22.09;59.96;92033.72;6314281;22;19995;-73
2024/04/24 10:32:27;;;;;;;5.88;1.60;;;;;;;22.20;59.70;92037.53;6315608;22;20015;-73
2024/04/24 10:34:54;;;;;;;6.20;1.88;;;;;;;22.08;59.62;92012.00;6318569;22;20031;-73
2024/04/24 10:37:20;;;;;;;4.55;1.52;;;;;;;22.40;57.21;92051.03;6316515;22;20015;-73
2024/04/24 10:39:49;;;;;;;;;;;;;;;22.57;57.31;92031.16;6316930;22;19996;-74
2024/04/24 10:42:15;;;;;;;6.25;2.40;;;;;;;22.57;58.63;92026.69;6319295;22;20298;-73
2024/04/24 10:44:44;;;;;;;3.25;1.35;;;;;;;22.72;57.52;92041.09;6314665;22;20432;-74
2024/04/24 10:47:10;;;;;;;7.38;1.35;;;;;;;22.60;55.93;92039.16;6315445;22;20085;-73
2024/04/24 10:49:40;;;;;;;3.42;1.20;;;;;;;22.58;54.70;92041.28;6317168;22;20000;-73
2024/04/24 10:52:06;;;;;;;6.45;1.50;;;;;;;22.67;55.12;92042.03;6317600;22;20004;-74
2024/04/24 10:54:34;;;;;;;;;;;;;;;22.75;54.65;92044.94;6317527;22;20007;-74
2024/04/24 10:57:01;;;;;;;5.28;1.20;;;;;;;22.46;54.45;92034.09;6316440;22;20554;-74
2024/04/24 10:59:35;;;;;;;3.45;1.45;;;;;;;22.36;55.09;92016.88;6313281;22;20003;-74
2024/04/24 11:02:06;;;;;;;4.85;1.60;;;;;;;22.57;54.89;92052.09;6313551;22;20003;-74
2024/04/24 11:04:32;;;;;;;8.10;1.88;;;;;;;22.49;55.45;92032.69;6318597;22;19996;-73
2024/04/24 11:06:57;;;;;;;;;;;;;;;22.43;54.40;92051.19;6318925;22;20039;-73
2024/04/24 11:09:24;;;;;;;5.85;1.20;;;;;;;22.32;53.60;92036.13;6314376;22;19923;-73
2024/04/24 11:11:51;;;;;;;2.28;0.90;;;;;;;22.54;53.61;92038.53;6313582;22;19995;-74
2024/04/24 11:14:17;;;;;;;4.60;1.35;;;;;;;22.73;53.67;92034.03;6313293;22;19992;-73
2024/04/24 11:16:53;;;;;;;;;;;;;;;23.00;55.04;92038.03;6314692;22;20499;-74
2024/04/24 11:19:19;;;;;;;4.00;1.15;;;;;;;22.66;52.07;91998.63;6315161;22;20321;-73
2024/04/24 11:21:44;;;;;;;;;;;;;;;22.78;51.13;92045.06;6319235;22;20033;-73